• Join FlightAware (Why Join?)
  • Login
  • US Flag 
Gobble Gobble! 
02:41PM EST


 

Airport Tracker/Info


-or-


 

Live Flight TrackerFlight Track Log ✈ CDG4990 ✈ 30-Jul-2014 ✈ ZGSD / ZUH - ZUGY / KWE

Flight Track Log - Related Links

Times and Time Zones

All times are in EDT time to prevent confusion due to time zone crossing. See the CDG4990 flight status page for this flight to view local times or setup timezone preferences in your user account.

Time Position Orientation Groundspeed Altitude Reporting Facility
EDT Latitude Longitude Course Direction KTS MPH feet Rate Location/Type
09:35AM 22.4401 112.7835 308° West  Level Estimated
09:36AM 22.4941 112.7091 308° West  Level Estimated
09:37AM 22.5481 112.6347 308° West  Level Estimated
09:38AM 22.6020 112.5602 308° West  Level Estimated
09:39AM 22.6559 112.4856 308° West  Level Estimated
09:40AM 22.7098 112.4110 308° West  Level Estimated
09:40AM 22.4792 113.7653 17° North 362 417 11,700  Level FlightAware ADS-B
09:41AM 22.5633 113.7643 356° North 368 423 11,800 60 Climbing FlightAware ADS-B
09:43AM 22.6517 113.6196 304° West  Level Estimated
09:44AM 22.6999 113.5405 303° West  Level Estimated
09:45AM 22.7481 113.4614 303° West  Level Estimated
09:46AM 22.7962 113.3823 303° West  Level Estimated
09:47AM 22.8442 113.3030 303° West  Level Estimated
09:48AM 22.8923 113.2238 303° West  Level Estimated
09:49AM 22.9403 113.1444 303° West  Level Estimated
09:50AM 22.9882 113.0651 303° West  Level Estimated
09:51AM 23.0361 112.9856 303° West  Level Estimated
09:52AM 23.0840 112.9061 303° West  Level Estimated
09:53AM 23.1318 112.8266 303° West  Level Estimated
09:54AM 23.1796 112.7470 303° West  Level Estimated
09:55AM 23.2274 112.6673 303° West  Level Estimated
09:56AM 23.2751 112.5876 303° West  Level Estimated
09:57AM 23.3228 112.5078 303° West  Level Estimated
09:58AM 23.3704 112.4280 303° West  Level Estimated
09:59AM 23.4180 112.3481 303° West  Level Estimated
10:00AM 23.4656 112.2681 303° West  Level Estimated
10:01AM 23.5131 112.1881 303° West  Level Estimated
10:02AM 23.5606 112.1081 303° West  Level Estimated
10:03AM 23.6080 112.0279 303° West  Level Estimated
10:04AM 23.6554 111.9477 303° West  Level Estimated
10:05AM 23.7027 111.8675 303° West  Level Estimated
10:06AM 23.7500 111.7872 303° West  Level Estimated
10:07AM 23.7973 111.7068 303° West  Level Estimated
10:08AM 23.8445 111.6264 303° West  Level Estimated
10:09AM 23.8917 111.5460 303° West  Level Estimated
10:10AM 23.9389 111.4654 303° West  Level Estimated
10:11AM 23.9860 111.3848 303° West  Level Estimated
10:12AM 24.0330 111.3042 303° West  Level Estimated
10:13AM 24.0800 111.2235 303° West  Level Estimated
10:14AM 24.1270 111.1427 303° West  Level Estimated
10:15AM 24.1739 111.0619 302° West  Level Estimated
10:16AM 24.2208 110.9810 302° West  Level Estimated
10:17AM 24.2677 110.9000 302° West  Level Estimated
10:18AM 24.3145 110.8190 302° West  Level Estimated
10:19AM 24.3612 110.7380 302° West  Level Estimated
10:20AM 24.4079 110.6569 302° West  Level Estimated
10:21AM 24.4546 110.5757 302° West  Level Estimated
10:22AM 24.5012 110.4944 302° West  Level Estimated
10:23AM 24.5478 110.4131 302° West  Level Estimated
10:24AM 24.5944 110.3317 302° West  Level Estimated
10:25AM 24.6409 110.2503 302° West  Level Estimated
10:26AM 24.6873 110.1688 302° West  Level Estimated
10:27AM 24.7337 110.0873 302° West  Level Estimated
10:28AM 24.7801 110.0057 302° West  Level Estimated
10:29AM 24.8264 109.9240 302° West  Level Estimated
10:30AM 24.8727 109.8423 302° West  Level Estimated
10:31AM 24.9189 109.7605 302° West  Level Estimated
10:32AM 24.9651 109.6786 302° West  Level Estimated
10:33AM 25.0113 109.5967 302° West  Level Estimated
10:34AM 25.0574 109.5147 302° West  Level Estimated
10:35AM 25.1034 109.4327 302° West  Level Estimated
10:36AM 25.1494 109.3506 302° West  Level Estimated
10:37AM 25.1954 109.2684 302° West  Level Estimated
10:38AM 25.2413 109.1862 302° West  Level Estimated
10:39AM 25.2872 109.1039 302° West  Level Estimated
10:40AM 25.3330 109.0216 302° West  Level Estimated
10:41AM 25.3788 108.9391 302° West  Level Estimated
10:42AM 25.4245 108.8567 302° West  Level Estimated
10:43AM 25.4702 108.7741 302° West  Level Estimated
10:44AM 25.5158 108.6915 301° West  Level Estimated
10:45AM 25.5614 108.6089 301° West  Level Estimated
10:46AM 25.6070 108.5261 301° West  Level Estimated
10:47AM 25.6525 108.4434 301° West  Level Estimated
10:48AM 25.6980 108.3605 301° West  Level Estimated
10:49AM 25.7434 108.2776 301° West  Level Estimated
10:50AM 25.7887 108.1946 301° West  Level Estimated
10:51AM 25.8340 108.1116 301° West  Level Estimated
10:52AM 25.8793 108.0285 301° West  Level Estimated
10:53AM 25.9245 107.9453 301° West  Level Estimated
10:54AM 25.9697 107.8621 301° West  Level Estimated
10:55AM 26.0148 107.7788 301° West  Level Estimated
10:56AM 26.0599 107.6954 301° West  Level Estimated
10:57AM 26.1049 107.6120 301° West  Level Estimated
10:58AM 26.1499 107.5285 301° West  Level Estimated
10:59AM 26.1948 107.4449 301° West  Level Estimated
11:00AM 26.2397 107.3613 301° West  Level Estimated
11:01AM 26.2846 107.2776 301° West  Level Estimated
11:02AM 26.3293 107.1939 301° West  Level Estimated
11:03AM 26.3741 107.1101 301° West  Level Estimated
11:04AM 26.4188 107.0262 301° West  Level Estimated
11:05AM 26.4634 106.9423 301° West  Level Estimated
11:06AM 26.5080 106.8583 301° West  Level Estimated
11:07AM 26.5385 106.8007 301° West  Level Estimated
11:08AM 26.5385 106.8007 North  Level Estimated
11:09AM 26.5385 106.8007 North  Level Estimated